AirNav   Phillips 66 Aviation Fuel
 
 1530 users online  

60KS Alley Field Airport
Douglass, Kansas, USA

GOING TO DOUGLASS?


FAA INFORMATION EFFECTIVE 23 MAY 2019

Location

FAA Identifier: 60KS
Lat/Long: 37-30-50.0710N / 097-00-01.1310W
37-30.834517N / 097-00.018850W
37.5139086 / -97.0003142
(estimated)
Elevation: 1260 ft. / 384 m (estimated)
Variation: 07E (1985)
From city: 1 mile E of DOUGLASS, KS
Time zone: UTC -5 (UTC -6 during Standard Time)
Zip code: 67039

Airport Operations

Airport use: Private use. Permission required prior to landing
Activation date: 02/1987
Control tower: no
ARTCC: KANSAS CITY CENTER
FSS: WICHITA FLIGHT SERVICE STATION
Attendance: UNATNDD
Wind indicator: yes
Segmented circle: no

Airport Communications

WX AWOS-3PT at 3AU (10 nm N): 124.175 (316-733-6696)
WX AWOS-3PT at BEC (15 nm NW): 119.45 (316-515-7116)
WX AWOS-3 at 1K1 (17 nm N): 118.3 (316-530-6004)
WX ASOS at AAO (18 nm NW): 134.025 (316-636-2541)
WX AWOS-3P at EQA (18 nm NE): 120.875 (316-322-8095)

Nearby radio navigation aids

VOR radial/distance  VOR name  Freq  Var
ICTr110/31.0WICHITA VORTAC113.8007E

 
NDB name  Hdg/Dist  Freq  Var  ID
NEWTON153/35.528106EEWK . .-- -.-

Airport Services

Runway Information

Runway 17/35

Dimensions: 1200 x 75 ft. / 366 x 23 m
Surface: turf
RUNWAY 17  RUNWAY 35
Traffic pattern: rightleft

Airport Ownership and Management from official FAA records

Ownership: Privately-owned
Owner: LAWRENCE ALLEY
1220 E. 8TH
DOUGLASS, KS 67039
Phone 316-747-2510
Manager: LAWRENCE ALLEY
1220 E. 8TH
DOUGLASS, KS 67039
Phone 316-747-2510

Airport Operational Statistics

Aircraft based on the field: 2
Single engine airplanes: 2
    

Instrument Procedures

There are no published instrument procedures at 60KS.

Some nearby airports with instrument procedures:

3AU - Augusta Municipal Airport (10 nm N)
KIAB - Mc Connell Air Force Base (14 nm NW)
KCEA - Cessna Aircraft Field Airport (14 nm NW)
KBEC - Beech Factory Airport (15 nm NW)
1K1 - Lloyd Stearman Field Airport (17 nm N)
KAAO - Colonel James Jabara Airport (18 nm NW)
KEQA - El Dorado/Captain Jack Thomas Memorial Airport (18 nm NE)
 
Loc | Ops | Rwys | IFR | FBO | Links
Com | Nav | Svcs | Stats | Notes

Kansas City Aviation Department
 
Area around 60KS (Alley Field Airport)
 
Road maps at: MapQuest Bing Google
 
Aerial photo
No photo
 
Sectional chart

 
Airport distance calculator
Flying to Alley Field Airport? Find the distance to fly.

From to 60KS

Sunrise and sunset
Times for 19-Jun-2019
 Local
(UTC-5)
 Zulu
(UTC)
Morning civil twilight05:3710:37
Sunrise06:0811:08
Sunset20:5101:51
Evening civil twilight21:2202:22

Current date and time
Zulu (UTC)  19-Jun-2019 18:18:24
Local (UTC-5)  19-Jun-2019 13:18:24
 
METAR
K3AU 
10nm N 
191755Z AUTO 36003KT 10SM SCT023 OVC041 23/17 A2981 RMK AO2
KIAB 
14nm NW 
191756Z AUTO 00000KT 10SM BKN021 OVC030 24/18 A2980 RMK AO2 BKN V OVC SLP083 T02390181 10239 20187
KBEC 
15nm NW 
191755Z AUTO 00000KT 10SM BKN023 BKN029 OVC043 23/18 A2980 RMK AO2 T02290175 10229 20180
K1K1 
17nm N 
191755Z AUTO 25004KT 10SM SCT027 SCT033 OVC041 22/17 A2981 RMK AO2 6//// T02220170
KAAO 
18nm NW 
191754Z AUTO 00000KT 10SM SCT024 BKN029 BKN040 23/17 A2980 RMK AO2 SLP081 T02280172 10233 20183 56006
KEQA 
18nm NE 
191755Z AUTO 24003KT 10SM SCT022 BKN030 OVC040 23/18 A2980 RMK AO2
TAF
KIAB 
14nm NW 
191800Z 1918/2024 VRB06KT 9999 BKN025 OVC035 QNH2973INS BECMG 1924/2001 VRB06KT 9999 FEW020 QNH2972INS BECMG 2009/2010 VRB06KT 6000 BR SKC QNH2972INS BECMG 2012/2013 18008KT 9999 NSW SKC QNH2973INS BECMG 2014/2015 18015G20KT 9999 SKC QNH2975INS BECMG 2023/2024 16009KT 9999 FEW180 QNH2970INS TX30/2018Z TN19/2011Z
NOTAMs
Click for the latest NOTAMs
NOTAMs are issued by the DoD/FAA and will open in a separate window not controlled by AirNav.

 

 
 

Would you like to see your business listed on this page?

 If your business provides an interesting product or service to pilots, flight crews, aircraft, or users of the Alley Field Airport, you should consider listing it here.  To start the listing process, click on the button below
 
Add a business
 

Other Pages about Alley Field Airport

Update a link
 
Copyright © AirNav, LLC. All rights reserved. Privacy Policy  Contact